sensor_id;sensor_type;location;lat;lon;timestamp;pressure;altitude;pressure_sealevel;temperature;humidity
141;BME280;65;48.778;9.160;2024-03-23T00:56:14;97778.47;;;8.99;100.00
141;BME280;65;48.778;9.160;2024-03-23T00:59:00;97771.69;;;8.95;100.00
141;BME280;65;48.778;9.160;2024-03-23T01:01:46;97768.13;;;8.96;100.00
141;BME280;65;48.778;9.160;2024-03-23T01:04:31;97773.94;;;9.01;100.00
141;BME280;65;48.778;9.160;2024-03-23T01:07:17;97767.13;;;9.11;100.00
141;BME280;65;48.778;9.160;2024-03-23T01:10:04;97756.91;;;9.34;100.00
141;BME280;65;48.778;9.160;2024-03-23T01:12:49;97756.56;;;9.65;100.00
141;BME280;65;48.778;9.160;2024-03-23T01:15:35;97755.91;;;9.89;100.00
141;BME280;65;48.778;9.160;2024-03-23T01:18:22;97751.06;;;10.08;100.00
141;BME280;65;48.778;9.160;2024-03-23T01:21:08;97735.78;;;10.51;96.31
141;BME280;65;48.778;9.160;2024-03-23T01:23:54;97732.47;;;10.73;95.15
141;BME280;65;48.778;9.160;2024-03-23T01:26:40;97731.25;;;10.90;93.00
141;BME280;65;48.778;9.160;2024-03-23T01:29:26;97727.03;;;11.00;93.73
141;BME280;65;48.778;9.160;2024-03-23T01:32:11;97724.00;;;11.17;90.93
141;BME280;65;48.778;9.160;2024-03-23T01:34:57;97719.53;;;11.65;84.17
141;BME280;65;48.778;9.160;2024-03-23T01:37:43;97721.78;;;11.83;84.26
141;BME280;65;48.778;9.160;2024-03-23T01:40:32;97719.44;;;12.13;80.49
141;BME280;65;48.778;9.160;2024-03-23T01:43:18;97723.88;;;12.13;80.59
141;BME280;65;48.778;9.160;2024-03-23T01:46:03;97715.81;;;12.03;79.69
141;BME280;65;48.778;9.160;2024-03-23T01:48:49;97701.13;;;11.99;80.39
141;BME280;65;48.778;9.160;2024-03-23T01:51:36;97711.69;;;11.88;81.02
141;BME280;65;48.778;9.160;2024-03-23T01:54:23;97699.91;;;11.92;82.72
141;BME280;65;48.778;9.160;2024-03-23T01:57:10;97684.72;;;11.83;82.74
141;BME280;65;48.778;9.160;2024-03-23T01:59:56;97679.84;;;11.77;83.29
141;BME280;65;48.778;9.160;2024-03-23T02:05:29;97680.44;;;11.69;83.54
141;BME280;65;48.778;9.160;2024-03-23T02:08:17;97667.03;;;11.94;81.72
141;BME280;65;48.778;9.160;2024-03-23T02:11:03;97678.72;;;11.92;82.34
141;BME280;65;48.778;9.160;2024-03-23T02:13:49;97673.84;;;11.75;83.13
141;BME280;65;48.778;9.160;2024-03-23T02:16:35;97675.56;;;11.87;82.96
141;BME280;65;48.778;9.160;2024-03-23T02:19:21;97671.91;;;11.77;83.51
141;BME280;65;48.778;9.160;2024-03-23T02:22:06;97665.25;;;11.95;82.59
141;BME280;65;48.778;9.160;2024-03-23T02:24:52;97654.03;;;11.91;82.66
141;BME280;65;48.778;9.160;2024-03-23T02:27:38;97651.38;;;11.80;83.69
141;BME280;65;48.778;9.160;2024-03-23T02:30:26;97653.00;;;11.70;85.05
141;BME280;65;48.778;9.160;2024-03-23T02:33:12;97650.59;;;11.67;85.90
141;BME280;65;48.778;9.160;2024-03-23T02:35:57;97653.75;;;11.72;85.21
141;BME280;65;48.778;9.160;2024-03-23T02:38:43;97652.34;;;11.79;84.08
141;BME280;65;48.778;9.160;2024-03-23T02:41:29;97657.00;;;11.76;85.90
141;BME280;65;48.778;9.160;2024-03-23T02:44:14;97653.91;;;11.93;84.14
141;BME280;65;48.778;9.160;2024-03-23T02:47:00;97640.19;;;12.10;83.75
141;BME280;65;48.778;9.160;2024-03-23T02:49:46;97637.56;;;12.10;83.38
141;BME280;65;48.778;9.160;2024-03-23T02:52:32;97636.00;;;12.08;83.62
141;BME280;65;48.778;9.160;2024-03-23T02:55:18;97633.81;;;11.90;85.25
141;BME280;65;48.778;9.160;2024-03-23T02:58:04;97634.41;;;11.83;86.82
141;BME280;65;48.778;9.160;2024-03-23T03:00:49;97629.34;;;11.80;86.83
141;BME280;65;48.778;9.160;2024-03-23T03:03:35;97621.66;;;11.88;87.14
141;BME280;65;48.778;9.160;2024-03-23T03:06:25;97610.34;;;11.97;87.24
141;BME280;65;48.778;9.160;2024-03-23T03:09:11;97611.56;;;11.93;87.15
141;BME280;65;48.778;9.160;2024-03-23T03:11:57;97608.66;;;11.85;87.37
141;BME280;65;48.778;9.160;2024-03-23T03:14:42;97615.59;;;11.75;89.10
141;BME280;65;48.778;9.160;2024-03-23T03:17:28;97618.03;;;11.78;88.81
141;BME280;65;48.778;9.160;2024-03-23T03:20:14;97616.13;;;11.80;88.96
141;BME280;65;48.778;9.160;2024-03-23T03:23:01;97614.38;;;11.67;90.83
141;BME280;65;48.778;9.160;2024-03-23T03:25:47;97615.59;;;11.63;91.18
141;BME280;65;48.778;9.160;2024-03-23T03:28:33;97608.19;;;11.56;91.24
141;BME280;65;48.778;9.160;2024-03-23T03:31:18;97598.56;;;11.44;92.80
141;BME280;65;48.778;9.160;2024-03-23T03:34:04;97601.53;;;11.28;94.23
141;BME280;65;48.778;9.160;2024-03-23T03:36:50;97593.63;;;11.04;95.94
141;BME280;65;48.778;9.160;2024-03-23T03:39:36;97596.22;;;11.28;94.49
141;BME280;65;48.778;9.160;2024-03-23T03:42:22;97596.97;;;11.41;93.87
141;BME280;65;48.778;9.160;2024-03-23T03:45:08;97589.28;;;11.38;93.05
141;BME280;65;48.778;9.160;2024-03-23T03:47:54;97586.47;;;11.17;94.99
141;BME280;65;48.778;9.160;2024-03-23T03:50:40;97579.78;;;11.00;97.06
141;BME280;65;48.778;9.160;2024-03-23T03:53:26;97568.38;;;11.00;97.70
141;BME280;65;48.778;9.160;2024-03-23T03:56:12;97563.59;;;10.81;100.00
141;BME280;65;48.778;9.160;2024-03-23T03:58:57;97553.72;;;10.72;99.98
141;BME280;65;48.778;9.160;2024-03-23T04:01:43;97539.16;;;10.66;100.00
141;BME280;65;48.778;9.160;2024-03-23T04:04:29;97524.88;;;10.69;100.00
141;BME280;65;48.778;9.160;2024-03-23T04:07:15;97519.84;;;10.77;100.00
141;BME280;65;48.778;9.160;2024-03-23T04:10:01;97525.09;;;10.66;100.00
141;BME280;65;48.778;9.160;2024-03-23T04:12:48;97520.19;;;10.72;100.00
141;BME280;65;48.778;9.160;2024-03-23T04:15:33;97511.81;;;10.78;100.00
141;BME280;65;48.778;9.160;2024-03-23T04:18:19;97504.97;;;10.87;100.00
141;BME280;65;48.778;9.160;2024-03-23T04:21:05;97506.50;;;10.78;100.00
141;BME280;65;48.778;9.160;2024-03-23T04:23:50;97499.31;;;10.81;100.00
141;BME280;65;48.778;9.160;2024-03-23T04:26:41;97507.69;;;10.98;100.00
141;BME280;65;48.778;9.160;2024-03-23T04:29:27;97521.16;;;11.06;100.00
141;BME280;65;48.778;9.160;2024-03-23T04:32:13;97528.13;;;11.07;100.00
141;BME280;65;48.778;9.160;2024-03-23T04:34:59;97551.94;;;11.07;100.00
141;BME280;65;48.778;9.160;2024-03-23T04:37:45;97571.69;;;11.26;100.00
141;BME280;65;48.778;9.160;2024-03-23T04:40:31;97567.88;;;11.41;100.00
141;BME280;65;48.778;9.160;2024-03-23T04:43:16;97553.19;;;11.26;100.00
141;BME280;65;48.778;9.160;2024-03-23T04:46:02;97552.69;;;11.21;100.00
141;BME280;65;48.778;9.160;2024-03-23T04:48:48;97552.66;;;11.09;100.00
141;BME280;65;48.778;9.160;2024-03-23T04:51:37;97567.31;;;11.02;100.00
141;BME280;65;48.778;9.160;2024-03-23T04:54:31;97576.13;;;10.90;100.00
141;BME280;65;48.778;9.160;2024-03-23T04:57:22;97581.88;;;10.84;100.00
141;BME280;65;48.778;9.160;2024-03-23T05:00:09;97569.34;;;10.75;100.00
141;BME280;65;48.778;9.160;2024-03-23T05:03:02;97588.06;;;10.72;100.00
141;BME280;65;48.778;9.160;2024-03-23T05:05:50;97592.06;;;10.54;100.00
141;BME280;65;48.778;9.160;2024-03-23T05:08:36;97582.78;;;10.35;100.00
141;BME280;65;48.778;9.160;2024-03-23T05:11:22;97597.50;;;10.27;100.00
141;BME280;65;48.778;9.160;2024-03-23T05:14:08;97601.63;;;10.18;100.00
141;BME280;65;48.778;9.160;2024-03-23T05:16:54;97591.50;;;10.12;100.00
141;BME280;65;48.778;9.160;2024-03-23T05:19:40;97598.03;;;10.06;100.00
141;BME280;65;48.778;9.160;2024-03-23T05:22:26;97610.09;;;9.98;100.00
141;BME280;65;48.778;9.160;2024-03-23T05:25:12;97606.06;;;9.79;100.00
141;BME280;65;48.778;9.160;2024-03-23T05:27:58;97605.44;;;9.63;100.00
141;BME280;65;48.778;9.160;2024-03-23T05:30:50;97597.31;;;9.54;100.00
141;BME280;65;48.778;9.160;2024-03-23T05:33:36;97611.34;;;9.41;100.00
141;BME280;65;48.778;9.160;2024-03-23T05:36:25;97614.72;;;9.31;100.00
141;BME280;65;48.778;9.160;2024-03-23T05:39:11;97608.25;;;9.22;100.00
141;BME280;65;48.778;9.160;2024-03-23T05:41:57;97618.88;;;9.20;100.00
141;BME280;65;48.778;9.160;2024-03-23T05:44:46;97636.06;;;9.13;100.00
141;BME280;65;48.778;9.160;2024-03-23T05:47:32;97644.91;;;9.12;100.00
141;BME280;65;48.778;9.160;2024-03-23T05:50:17;97665.06;;;9.13;100.00
141;BME280;65;48.778;9.160;2024-03-23T05:53:03;97679.38;;;9.09;100.00
141;BME280;65;48.778;9.160;2024-03-23T05:55:51;97677.16;;;9.03;100.00
141;BME280;65;48.778;9.160;2024-03-23T05:58:39;97671.41;;;8.84;100.00
141;BME280;65;48.778;9.160;2024-03-23T06:01:25;97678.59;;;8.68;100.00
141;BME280;65;48.778;9.160;2024-03-23T06:04:15;97668.41;;;8.62;100.00
141;BME280;65;48.778;9.160;2024-03-23T06:07:01;97670.03;;;8.50;100.00
141;BME280;65;48.778;9.160;2024-03-23T06:09:50;97673.81;;;8.46;100.00
141;BME280;65;48.778;9.160;2024-03-23T06:12:36;97681.81;;;8.44;100.00
141;BME280;65;48.778;9.160;2024-03-23T06:15:22;97682.47;;;8.48;100.00
141;BME280;65;48.778;9.160;2024-03-23T06:18:09;97691.22;;;8.48;100.00
141;BME280;65;48.778;9.160;2024-03-23T06:20:54;97710.69;;;8.46;100.00
141;BME280;65;48.778;9.160;2024-03-23T06:23:44;97685.38;;;8.43;100.00
141;BME280;65;48.778;9.160;2024-03-23T06:26:36;97683.03;;;8.39;100.00
141;BME280;65;48.778;9.160;2024-03-23T06:29:22;97694.88;;;8.46;100.00
141;BME280;65;48.778;9.160;2024-03-23T06:32:08;97710.50;;;8.49;100.00
141;BME280;65;48.778;9.160;2024-03-23T06:34:56;97736.16;;;8.60;100.00
141;BME280;65;48.778;9.160;2024-03-23T06:37:45;97740.47;;;8.61;100.00
141;BME280;65;48.778;9.160;2024-03-23T06:40:31;97746.69;;;8.74;100.00
141;BME280;65;48.778;9.160;2024-03-23T06:43:17;97758.56;;;8.52;100.00
141;BME280;65;48.778;9.160;2024-03-23T06:46:03;97781.88;;;8.59;100.00
141;BME280;65;48.778;9.160;2024-03-23T06:48:53;97756.19;;;8.48;100.00
141;BME280;65;48.778;9.160;2024-03-23T06:51:39;97781.50;;;8.65;100.00
141;BME280;65;48.778;9.160;2024-03-23T06:54:26;97791.78;;;8.69;100.00
141;BME280;65;48.778;9.160;2024-03-23T06:57:12;97779.69;;;8.65;100.00
141;BME280;65;48.778;9.160;2024-03-23T06:59:59;97796.34;;;8.66;100.00
141;BME280;65;48.778;9.160;2024-03-23T07:02:45;97813.94;;;8.51;100.00
141;BME280;65;48.778;9.160;2024-03-23T07:05:32;97804.09;;;8.69;100.00
141;BME280;65;48.778;9.160;2024-03-23T07:08:17;97812.84;;;8.83;100.00
141;BME280;65;48.778;9.160;2024-03-23T07:11:10;97827.41;;;8.89;100.00
141;BME280;65;48.778;9.160;2024-03-23T07:13:56;97832.47;;;9.06;100.00
141;BME280;65;48.778;9.160;2024-03-23T07:16:42;97833.91;;;8.98;100.00
141;BME280;65;48.778;9.160;2024-03-23T07:19:28;97831.66;;;8.77;100.00
141;BME280;65;48.778;9.160;2024-03-23T07:22:13;97835.63;;;8.70;100.00
141;BME280;65;48.778;9.160;2024-03-23T07:25:00;97836.56;;;8.83;100.00
141;BME280;65;48.778;9.160;2024-03-23T07:27:46;97854.88;;;9.28;100.00
141;BME280;65;48.778;9.160;2024-03-23T07:30:32;97834.84;;;9.52;100.00
141;BME280;65;48.778;9.160;2024-03-23T07:33:18;97842.31;;;9.72;100.00
141;BME280;65;48.778;9.160;2024-03-23T07:36:04;97859.59;;;9.91;100.00
141;BME280;65;48.778;9.160;2024-03-23T07:38:51;97860.44;;;9.64;100.00
141;BME280;65;48.778;9.160;2024-03-23T07:41:36;97864.72;;;9.52;100.00
141;BME280;65;48.778;9.160;2024-03-23T07:44:22;97869.16;;;9.38;100.00
141;BME280;65;48.778;9.160;2024-03-23T07:47:08;97879.72;;;9.09;100.00
141;BME280;65;48.778;9.160;2024-03-23T07:49:54;97899.41;;;8.90;100.00
141;BME280;65;48.778;9.160;2024-03-23T07:52:39;97897.41;;;8.65;100.00
141;BME280;65;48.778;9.160;2024-03-23T07:55:25;97901.44;;;8.26;100.00
141;BME280;65;48.778;9.160;2024-03-23T07:58:11;97906.53;;;7.83;100.00
141;BME280;65;48.778;9.160;2024-03-23T08:01:09;97901.53;;;7.63;100.00
141;BME280;65;48.778;9.160;2024-03-23T08:03:55;97906.84;;;7.46;100.00
141;BME280;65;48.778;9.160;2024-03-23T08:06:41;97913.13;;;7.27;100.00
141;BME280;65;48.778;9.160;2024-03-23T08:09:27;97933.06;;;7.32;100.00
141;BME280;65;48.778;9.160;2024-03-23T08:12:12;97946.94;;;7.18;100.00
141;BME280;65;48.778;9.160;2024-03-23T08:14:58;97960.09;;;7.18;100.00
141;BME280;65;48.778;9.160;2024-03-23T08:17:44;97961.03;;;7.33;100.00
141;BME280;65;48.778;9.160;2024-03-23T08:20:30;97947.44;;;7.57;100.00
141;BME280;65;48.778;9.160;2024-03-23T08:23:16;97962.88;;;7.79;100.00
141;BME280;65;48.778;9.160;2024-03-23T08:26:03;97981.78;;;7.86;100.00
141;BME280;65;48.778;9.160;2024-03-23T08:28:49;97992.22;;;7.87;100.00
141;BME280;65;48.778;9.160;2024-03-23T08:31:34;97997.56;;;7.86;100.00
141;BME280;65;48.778;9.160;2024-03-23T08:34:20;98007.50;;;7.97;100.00
141;BME280;65;48.778;9.160;2024-03-23T08:37:06;98033.41;;;7.88;100.00
141;BME280;65;48.778;9.160;2024-03-23T08:39:51;98031.34;;;7.78;100.00
141;BME280;65;48.778;9.160;2024-03-23T08:42:38;98041.28;;;7.88;100.00
141;BME280;65;48.778;9.160;2024-03-23T08:45:24;98036.09;;;7.87;100.00
141;BME280;65;48.778;9.160;2024-03-23T08:48:10;98036.78;;;8.06;100.00
141;BME280;65;48.778;9.160;2024-03-23T08:51:03;98019.56;;;8.32;100.00
141;BME280;65;48.778;9.160;2024-03-23T08:53:49;98013.47;;;8.62;100.00
141;BME280;65;48.778;9.160;2024-03-23T08:56:35;98020.69;;;10.03;100.00
141;BME280;65;48.778;9.160;2024-03-23T08:59:21;98023.22;;;11.63;100.00
141;BME280;65;48.778;9.160;2024-03-23T09:02:06;98035.06;;;11.70;95.42
141;BME280;65;48.778;9.160;2024-03-23T09:04:52;98048.91;;;10.71;100.00
141;BME280;65;48.778;9.160;2024-03-23T09:07:38;98057.84;;;10.00;100.00
141;BME280;65;48.778;9.160;2024-03-23T09:13:23;98075.19;;;9.03;100.00
141;BME280;65;48.778;9.160;2024-03-23T09:16:08;98091.53;;;8.94;100.00
141;BME280;65;48.778;9.160;2024-03-23T09:18:55;98106.59;;;8.92;100.00
141;BME280;65;48.778;9.160;2024-03-23T09:21:41;98108.69;;;9.01;100.00
141;BME280;65;48.778;9.160;2024-03-23T09:24:26;98097.72;;;9.23;96.78
141;BME280;65;48.778;9.160;2024-03-23T09:27:12;98117.47;;;9.46;96.50
141;BME280;65;48.778;9.160;2024-03-23T09:29:58;98111.44;;;9.44;93.86
141;BME280;65;48.778;9.160;2024-03-23T09:32:44;98102.03;;;9.40;94.72
141;BME280;65;48.778;9.160;2024-03-23T09:35:30;98112.09;;;9.33;88.33
141;BME280;65;48.778;9.160;2024-03-23T09:38:16;98116.38;;;9.78;87.97
141;BME280;65;48.778;9.160;2024-03-23T09:41:07;98106.94;;;10.31;79.68
141;BME280;65;48.778;9.160;2024-03-23T09:43:54;98106.44;;;10.80;81.72
141;BME280;65;48.778;9.160;2024-03-23T09:46:40;98103.91;;;11.05;78.76
141;BME280;65;48.778;9.160;2024-03-23T09:49:25;98106.84;;;10.19;68.73
141;BME280;65;48.778;9.160;2024-03-23T09:52:12;98105.59;;;10.38;72.18
141;BME280;65;48.778;9.160;2024-03-23T09:54:58;98099.78;;;10.48;70.45
141;BME280;65;48.778;9.160;2024-03-23T09:57:44;98107.34;;;10.93;64.05
141;BME280;65;48.778;9.160;2024-03-23T10:00:29;98130.94;;;10.69;61.87
141;BME280;65;48.778;9.160;2024-03-23T10:03:15;98137.16;;;10.41;63.60
141;BME280;65;48.778;9.160;2024-03-23T10:06:02;98116.75;;;10.43;64.99
141;BME280;65;48.778;9.160;2024-03-23T10:08:48;98114.88;;;10.31;67.46
141;BME280;65;48.778;9.160;2024-03-23T10:11:34;98115.94;;;10.70;64.76
141;BME280;65;48.778;9.160;2024-03-23T10:14:29;98104.41;;;10.71;63.57
141;BME280;65;48.778;9.160;2024-03-23T10:17:20;98107.16;;;10.42;64.67
141;BME280;65;48.778;9.160;2024-03-23T10:20:09;98105.44;;;10.41;62.53
141;BME280;65;48.778;9.160;2024-03-23T10:22:56;98112.53;;;9.98;64.68
141;BME280;65;48.778;9.160;2024-03-23T10:25:42;98099.16;;;9.87;70.88
141;BME280;65;48.778;9.160;2024-03-23T10:28:28;98101.84;;;10.14;66.46
141;BME280;65;48.778;9.160;2024-03-23T10:31:14;98096.38;;;10.31;68.51
141;BME280;65;48.778;9.160;2024-03-23T10:33:59;98087.59;;;10.17;68.16
141;BME280;65;48.778;9.160;2024-03-23T10:36:47;98091.03;;;10.04;65.50
141;BME280;65;48.778;9.160;2024-03-23T10:42:22;98090.72;;;9.66;67.21
141;BME280;65;48.778;9.160;2024-03-23T10:45:08;98086.41;;;9.51;65.78
141;BME280;65;48.778;9.160;2024-03-23T10:47:54;98102.28;;;9.35;72.74
141;BME280;65;48.778;9.160;2024-03-23T10:50:40;98110.50;;;8.85;86.90
141;BME280;65;48.778;9.160;2024-03-23T10:53:27;98145.63;;;8.54;88.73
141;BME280;65;48.778;9.160;2024-03-23T10:56:13;98164.34;;;7.83;100.00
141;BME280;65;48.778;9.160;2024-03-23T10:59:01;98178.31;;;7.34;100.00
141;BME280;65;48.778;9.160;2024-03-23T11:01:57;98225.66;;;6.79;100.00
141;BME280;65;48.778;9.160;2024-03-23T11:04:43;98214.06;;;6.26;100.00
141;BME280;65;48.778;9.160;2024-03-23T11:07:29;98193.09;;;5.87;100.00
141;BME280;65;48.778;9.160;2024-03-23T11:10:27;98190.13;;;5.75;100.00
141;BME280;65;48.778;9.160;2024-03-23T11:13:22;98167.06;;;6.22;100.00
141;BME280;65;48.778;9.160;2024-03-23T11:16:27;98172.44;;;7.28;100.00
141;BME280;65;48.778;9.160;2024-03-23T11:19:34;98159.97;;;8.96;100.00
141;BME280;65;48.778;9.160;2024-03-23T11:25:26;98163.25;;;8.69;100.00
141;BME280;65;48.778;9.160;2024-03-23T11:28:13;98162.28;;;9.32;100.00
141;BME280;65;48.778;9.160;2024-03-23T11:30:58;98159.31;;;10.25;100.00
141;BME280;65;48.778;9.160;2024-03-23T11:33:44;98166.56;;;9.48;100.00
141;BME280;65;48.778;9.160;2024-03-23T11:36:30;98168.09;;;9.67;100.00
141;BME280;65;48.778;9.160;2024-03-23T11:39:19;98159.19;;;9.83;100.00
141;BME280;65;48.778;9.160;2024-03-23T11:42:05;98146.91;;;11.99;90.93
141;BME280;65;48.778;9.160;2024-03-23T11:44:51;98138.00;;;14.27;75.61
141;BME280;65;48.778;9.160;2024-03-23T11:47:37;98142.09;;;15.50;69.19
141;BME280;65;48.778;9.160;2024-03-23T11:50:23;98132.91;;;15.23;61.86
141;BME280;65;48.778;9.160;2024-03-23T11:53:16;98129.16;;;13.35;66.56
141;BME280;65;48.778;9.160;2024-03-23T11:56:02;98133.53;;;12.39;68.83
141;BME280;65;48.778;9.160;2024-03-23T11:58:48;98124.03;;;12.24;66.05
141;BME280;65;48.778;9.160;2024-03-23T12:01:34;98118.44;;;11.90;63.42
141;BME280;65;48.778;9.160;2024-03-23T12:04:27;98129.69;;;10.48;69.29
141;BME280;65;48.778;9.160;2024-03-23T12:07:23;98124.41;;;10.34;75.19
141;BME280;65;48.778;9.160;2024-03-23T12:10:09;98130.50;;;10.63;71.28
141;BME280;65;48.778;9.160;2024-03-23T12:13:01;98118.97;;;10.64;69.73
141;BME280;65;48.778;9.160;2024-03-23T12:15:49;98122.25;;;10.26;65.29
141;BME280;65;48.778;9.160;2024-03-23T12:18:35;98126.84;;;10.37;65.65
141;BME280;65;48.778;9.160;2024-03-23T12:21:21;98116.50;;;9.91;62.73
141;BME280;65;48.778;9.160;2024-03-23T12:24:08;98125.91;;;10.79;61.35
141;BME280;65;48.778;9.160;2024-03-23T12:26:54;98123.91;;;10.56;65.87
141;BME280;65;48.778;9.160;2024-03-23T12:29:41;98104.44;;;10.84;61.06
141;BME280;65;48.778;9.160;2024-03-23T12:32:33;98104.53;;;12.25;54.64
141;BME280;65;48.778;9.160;2024-03-23T12:35:18;98096.16;;;13.61;52.96
141;BME280;65;48.778;9.160;2024-03-23T12:38:04;98104.41;;;14.59;52.48
141;BME280;65;48.778;9.160;2024-03-23T12:40:50;98106.97;;;12.88;51.50
141;BME280;65;48.778;9.160;2024-03-23T12:43:37;98113.63;;;11.57;56.37
141;BME280;65;48.778;9.160;2024-03-23T12:46:23;98121.09;;;10.44;60.06
141;BME280;65;48.778;9.160;2024-03-23T12:49:09;98125.16;;;9.93;62.78
141;BME280;65;48.778;9.160;2024-03-23T12:51:55;98118.06;;;9.51;65.19
141;BME280;65;48.778;9.160;2024-03-23T12:54:42;98123.56;;;9.32;66.11
141;BME280;65;48.778;9.160;2024-03-23T12:57:28;98121.03;;;9.31;67.94
141;BME280;65;48.778;9.160;2024-03-23T13:00:14;98114.38;;;11.59;61.85
141;BME280;65;48.778;9.160;2024-03-23T13:03:02;98102.88;;;14.88;52.02
141;BME280;65;48.778;9.160;2024-03-23T13:05:53;98102.25;;;16.92;44.56
141;BME280;65;48.778;9.160;2024-03-23T13:08:39;98095.94;;;17.22;41.67
141;BME280;65;48.778;9.160;2024-03-23T13:11:26;98090.16;;;16.07;46.04
141;BME280;65;48.778;9.160;2024-03-23T13:14:12;98088.44;;;15.34;47.38
141;BME280;65;48.778;9.160;2024-03-23T13:17:00;98071.22;;;15.59;48.08
141;BME280;65;48.778;9.160;2024-03-23T13:19:47;98082.03;;;15.58;44.15
141;BME280;65;48.778;9.160;2024-03-23T13:22:33;98068.84;;;13.48;55.31
141;BME280;65;48.778;9.160;2024-03-23T13:25:19;98073.59;;;13.78;49.74
141;BME280;65;48.778;9.160;2024-03-23T13:28:05;98065.94;;;13.16;50.97
141;BME280;65;48.778;9.160;2024-03-23T13:30:55;98059.75;;;12.33;51.91
141;BME280;65;48.778;9.160;2024-03-23T13:33:41;98061.34;;;11.86;54.35
141;BME280;65;48.778;9.160;2024-03-23T13:36:29;98048.94;;;11.61;51.98
141;BME280;65;48.778;9.160;2024-03-23T13:39:15;98049.25;;;11.44;50.77
141;BME280;65;48.778;9.160;2024-03-23T13:42:01;98033.50;;;13.13;46.00
141;BME280;65;48.778;9.160;2024-03-23T13:44:47;98043.03;;;14.51;41.46
141;BME280;65;48.778;9.160;2024-03-23T13:47:32;98040.28;;;14.73;41.79
141;BME280;65;48.778;9.160;2024-03-23T13:50:18;98032.59;;;14.91;40.83
141;BME280;65;48.778;9.160;2024-03-23T13:53:07;98039.47;;;14.62;41.17
141;BME280;65;48.778;9.160;2024-03-23T13:55:55;98040.63;;;14.80;41.15
141;BME280;65;48.778;9.160;2024-03-23T13:58:41;98038.56;;;13.73;43.15
141;BME280;65;48.778;9.160;2024-03-23T14:01:31;98056.78;;;12.38;47.20
141;BME280;65;48.778;9.160;2024-03-23T14:04:17;98073.28;;;10.89;50.06
141;BME280;65;48.778;9.160;2024-03-23T14:07:05;98097.06;;;10.06;56.72
141;BME280;65;48.778;9.160;2024-03-23T14:09:53;98102.00;;;9.26;67.81
141;BME280;65;48.778;9.160;2024-03-23T14:12:40;98119.34;;;8.21;91.59
141;BME280;65;48.778;9.160;2024-03-23T14:15:27;98142.34;;;7.34;100.00
141;BME280;65;48.778;9.160;2024-03-23T14:18:13;98147.09;;;6.74;100.00
141;BME280;65;48.778;9.160;2024-03-23T14:21:00;98134.81;;;5.81;100.00
141;BME280;65;48.778;9.160;2024-03-23T14:23:46;98131.88;;;5.48;100.00
141;BME280;65;48.778;9.160;2024-03-23T14:26:33;98133.59;;;5.49;100.00
141;BME280;65;48.778;9.160;2024-03-23T14:29:19;98118.19;;;6.19;100.00
141;BME280;65;48.778;9.160;2024-03-23T14:32:05;98091.06;;;6.74;100.00
141;BME280;65;48.778;9.160;2024-03-23T14:34:50;98073.84;;;8.19;100.00
141;BME280;65;48.778;9.160;2024-03-23T14:37:39;98054.75;;;9.07;100.00
141;BME280;65;48.778;9.160;2024-03-23T14:40:27;98061.72;;;9.52;100.00
141;BME280;65;48.778;9.160;2024-03-23T14:43:13;98080.28;;;9.79;100.00
141;BME280;65;48.778;9.160;2024-03-23T14:48:57;98074.25;;;9.77;100.00
141;BME280;65;48.778;9.160;2024-03-23T14:51:43;98081.16;;;8.45;100.00
141;BME280;65;48.778;9.160;2024-03-23T14:54:29;98084.03;;;7.60;100.00
141;BME280;65;48.778;9.160;2024-03-23T14:57:15;98075.19;;;7.11;100.00
141;BME280;65;48.778;9.160;2024-03-23T15:00:01;98096.22;;;6.94;100.00
141;BME280;65;48.778;9.160;2024-03-23T15:02:49;98095.72;;;6.69;100.00
141;BME280;65;48.778;9.160;2024-03-23T15:05:35;98096.94;;;6.79;100.00
141;BME280;65;48.778;9.160;2024-03-23T15:08:26;98112.69;;;7.15;100.00
141;BME280;65;48.778;9.160;2024-03-23T15:11:13;98089.16;;;7.29;100.00
141;BME280;65;48.778;9.160;2024-03-23T15:14:00;98098.88;;;8.26;100.00
141;BME280;65;48.778;9.160;2024-03-23T15:16:46;98090.00;;;8.90;100.00
141;BME280;65;48.778;9.160;2024-03-23T15:19:34;98084.31;;;9.42;99.84
141;BME280;65;48.778;9.160;2024-03-23T15:22:20;98076.69;;;9.80;91.26
141;BME280;65;48.778;9.160;2024-03-23T15:25:07;98055.91;;;10.45;87.49
141;BME280;65;48.778;9.160;2024-03-23T15:27:53;98061.53;;;10.93;78.83
141;BME280;65;48.778;9.160;2024-03-23T15:30:40;98057.19;;;11.44;74.19
141;BME280;65;48.778;9.160;2024-03-23T15:33:26;98048.91;;;10.71;71.50
141;BME280;65;48.778;9.160;2024-03-23T15:36:11;98044.25;;;10.21;70.93
141;BME280;65;48.778;9.160;2024-03-23T15:38:57;98057.19;;;9.68;74.22
141;BME280;65;48.778;9.160;2024-03-23T15:41:44;98051.44;;;9.47;77.69
141;BME280;65;48.778;9.160;2024-03-23T15:44:30;98062.06;;;9.32;75.62
141;BME280;65;48.778;9.160;2024-03-23T15:47:16;98069.44;;;9.41;78.35
141;BME280;65;48.778;9.160;2024-03-23T15:50:02;98061.47;;;8.82;76.82
141;BME280;65;48.778;9.160;2024-03-23T15:52:54;98058.22;;;8.47;78.57
141;BME280;65;48.778;9.160;2024-03-23T15:55:41;98058.16;;;8.33;84.72
141;BME280;65;48.778;9.160;2024-03-23T15:58:28;98054.28;;;8.07;82.06
141;BME280;65;48.778;9.160;2024-03-23T16:01:14;98060.31;;;7.93;82.82
141;BME280;65;48.778;9.160;2024-03-23T16:04:01;98047.47;;;7.87;81.44
141;BME280;65;48.778;9.160;2024-03-23T16:06:47;98044.34;;;7.97;80.88
141;BME280;65;48.778;9.160;2024-03-23T16:09:33;98030.94;;;8.01;86.94
141;BME280;65;48.778;9.160;2024-03-23T16:12:19;98034.16;;;8.06;85.13
141;BME280;65;48.778;9.160;2024-03-23T16:15:05;98034.00;;;7.93;86.91
141;BME280;65;48.778;9.160;2024-03-23T16:17:51;98033.38;;;7.73;86.77
141;BME280;65;48.778;9.160;2024-03-23T16:20:36;98036.34;;;7.67;86.88
141;BME280;65;48.778;9.160;2024-03-23T16:23:23;98029.25;;;7.51;89.46
141;BME280;65;48.778;9.160;2024-03-23T16:26:09;98036.94;;;7.39;88.90
141;BME280;65;48.778;9.160;2024-03-23T16:28:55;98038.09;;;7.17;87.10
141;BME280;65;48.778;9.160;2024-03-23T16:31:41;98032.44;;;7.08;87.56
141;BME280;65;48.778;9.160;2024-03-23T16:34:27;98042.13;;;7.07;90.75
141;BME280;65;48.778;9.160;2024-03-23T16:37:13;98042.13;;;7.07;88.12
141;BME280;65;48.778;9.160;2024-03-23T16:39:59;98038.09;;;7.00;88.63
141;BME280;65;48.778;9.160;2024-03-23T16:42:45;98041.16;;;6.91;92.66
141;BME280;65;48.778;9.160;2024-03-23T16:45:30;98050.16;;;7.04;91.79
141;BME280;65;48.778;9.160;2024-03-23T16:48:16;98054.56;;;7.04;100.00
141;BME280;65;48.778;9.160;2024-03-23T16:51:03;98097.22;;;6.55;100.00
141;BME280;65;48.778;9.160;2024-03-23T16:53:49;98076.44;;;6.15;100.00
141;BME280;65;48.778;9.160;2024-03-23T16:56:35;98071.81;;;5.82;100.00